MSR650 OERK-HECA
Flight info
| Callsign | MSR650 |
|---|---|
| Flight time | 2h 28m |
| Altitude | 30000 |
| Route | IVONU M321 HLF N316 PASAM L677 MENLI |
| Aircraft | B738/M-SDE2E3FGHIRWXY/LB1 |
Departure
| Time | 2026-05-04 23:44 |
|---|---|
| Airport | King Khalid International Airport (OERK) |
Arrival
| Time | 2026-05-05 02:12 |
|---|---|
| Airport | Cairo International Airport (HECA) |
| Time | Latitude | Longitude | Altitude | Speed | Heading |
|---|---|---|---|---|---|
| 2026-05-04 22:52 | 24.96205 | 46.70228 | 2132 ft | 0 kts | 182° |
| 2026-05-04 23:23 | 24.96226 | 46.70228 | 2072 ft | 4 kts | 174° |
| 2026-05-04 23:23 | 24.96252 | 46.70222 | 2071 ft | 4 kts | 150° |
| 2026-05-04 23:23 | 24.96267 | 46.70207 | 2073 ft | 4 kts | 79° |
| 2026-05-04 23:24 | 24.96264 | 46.70197 | 2071 ft | 1 kts | 60° |
| 2026-05-04 23:24 | 24.96263 | 46.70197 | 2071 ft | 0 kts | 60° |
| 2026-05-04 23:37 | 24.96268 | 46.70205 | 2072 ft | 3 kts | 60° |
| 2026-05-04 23:37 | 24.96282 | 46.70233 | 2057 ft | 6 kts | 60° |
| 2026-05-04 23:37 | 24.96305 | 46.70279 | 2042 ft | 8 kts | 59° |
| 2026-05-04 23:38 | 24.96338 | 46.70338 | 2042 ft | 10 kts | 60° |
| 2026-05-04 23:38 | 24.96377 | 46.70412 | 2042 ft | 12 kts | 60° |
| 2026-05-04 23:38 | 24.96420 | 46.70500 | 2044 ft | 14 kts | 60° |
| 2026-05-04 23:38 | 24.96465 | 46.70584 | 2045 ft | 10 kts | 51° |
| 2026-05-04 23:39 | 24.96531 | 46.70592 | 2043 ft | 11 kts | 332° |
| 2026-05-04 23:39 | 24.96605 | 46.70546 | 2043 ft | 13 kts | 330° |
| 2026-05-04 23:39 | 24.96687 | 46.70494 | 2047 ft | 14 kts | 330° |
| 2026-05-04 23:39 | 24.96777 | 46.70437 | 2050 ft | 16 kts | 329° |
| 2026-05-04 23:40 | 24.96874 | 46.70375 | 2044 ft | 17 kts | 329° |
| 2026-05-04 23:40 | 24.96978 | 46.70308 | 2048 ft | 18 kts | 329° |
| 2026-05-04 23:40 | 24.97089 | 46.70237 | 2047 ft | 19 kts | 329° |
| 2026-05-04 23:40 | 24.97205 | 46.70166 | 2047 ft | 19 kts | 330° |
| 2026-05-04 23:41 | 24.97319 | 46.70094 | 2043 ft | 20 kts | 331° |
| 2026-05-04 23:41 | 24.97435 | 46.70021 | 2048 ft | 16 kts | 329° |
| 2026-05-04 23:41 | 24.97514 | 46.69972 | 2043 ft | 11 kts | 345° |
| 2026-05-04 23:41 | 24.97570 | 46.70011 | 2043 ft | 11 kts | 54° |
| 2026-05-04 23:42 | 24.97611 | 46.70098 | 2038 ft | 15 kts | 60° |
| 2026-05-04 23:42 | 24.97666 | 46.70201 | 2037 ft | 12 kts | 69° |
| 2026-05-04 23:42 | 24.97651 | 46.70226 | 2040 ft | 0 kts | 148° |
| 2026-05-04 23:43 | 24.97567 | 46.70279 | 2041 ft | 46 kts | 150° |
| 2026-05-04 23:43 | 24.97075 | 46.70590 | 2040 ft | 116 kts | 150° |
| 2026-05-04 23:43 | 24.96183 | 46.71152 | 2041 ft | 173 kts | 150° |
| 2026-05-04 23:44 | 24.95075 | 46.71842 | 2586 ft | 181 kts | 151° |
| 2026-05-04 23:44 | 24.94038 | 46.72570 | 3450 ft | 183 kts | 136° |
| 2026-05-04 23:44 | 24.93115 | 46.73596 | 4025 ft | 196 kts | 133° |
| 2026-05-04 23:44 | 24.92087 | 46.74742 | 4241 ft | 222 kts | 134° |
| 2026-05-04 23:45 | 24.90944 | 46.76008 | 4431 ft | 243 kts | 134° |
| 2026-05-04 23:45 | 24.89728 | 46.77353 | 4771 ft | 255 kts | 134° |
| 2026-05-04 23:45 | 24.88474 | 46.78738 | 5231 ft | 261 kts | 135° |
| 2026-05-04 23:45 | 24.87222 | 46.80120 | 5762 ft | 265 kts | 135° |
| 2026-05-04 23:46 | 24.85937 | 46.81467 | 6327 ft | 270 kts | 146° |
| 2026-05-04 23:46 | 24.84224 | 46.82255 | 7036 ft | 266 kts | 169° |
| 2026-05-04 23:46 | 24.82520 | 46.82715 | 7739 ft | 268 kts | 169° |
| 2026-05-04 23:46 | 24.80877 | 46.83170 | 8364 ft | 271 kts | 169° |
| 2026-05-04 23:47 | 24.79019 | 46.83691 | 9076 ft | 274 kts | 169° |
| 2026-05-04 23:47 | 24.77150 | 46.83875 | 9654 ft | 267 kts | 195° |
| 2026-05-04 23:47 | 24.75517 | 46.83064 | 9979 ft | 260 kts | 223° |
| 2026-05-04 23:47 | 24.74451 | 46.81654 | 9990 ft | 257 kts | 245° |
| 2026-05-04 23:48 | 24.73932 | 46.79961 | 9987 ft | 255 kts | 264° |
| 2026-05-04 23:48 | 24.73831 | 46.77992 | 10006 ft | 254 kts | 268° |
| 2026-05-04 23:48 | 24.73774 | 46.76049 | 10003 ft | 254 kts | 268° |
| 2026-05-04 23:48 | 24.73720 | 46.74131 | 10002 ft | 254 kts | 268° |
| 2026-05-04 23:49 | 24.73666 | 46.72284 | 10006 ft | 255 kts | 268° |
| 2026-05-04 23:49 | 24.73614 | 46.70601 | 9999 ft | 255 kts | 268° |
| 2026-05-04 23:49 | 24.73553 | 46.68665 | 9998 ft | 255 kts | 268° |
| 2026-05-04 23:49 | 24.73490 | 46.66749 | 10003 ft | 255 kts | 268° |
| 2026-05-04 23:50 | 24.73428 | 46.64905 | 10004 ft | 254 kts | 268° |
| 2026-05-04 23:50 | 24.73362 | 46.62963 | 9993 ft | 254 kts | 268° |
| 2026-05-04 23:50 | 24.73295 | 46.61030 | 9992 ft | 252 kts | 268° |
| 2026-05-04 23:50 | 24.73228 | 46.59107 | 9999 ft | 251 kts | 268° |
| 2026-05-04 23:51 | 24.73137 | 46.57190 | 9994 ft | 251 kts | 262° |
| 2026-05-04 23:51 | 24.72533 | 46.55412 | 10015 ft | 257 kts | 242° |
| 2026-05-04 23:51 | 24.71587 | 46.53691 | 10169 ft | 279 kts | 240° |
| 2026-05-04 23:51 | 24.70559 | 46.51863 | 10333 ft | 302 kts | 240° |
| 2026-05-04 23:52 | 24.69445 | 46.49886 | 10485 ft | 323 kts | 240° |
| 2026-05-04 23:52 | 24.68271 | 46.47801 | 10621 ft | 344 kts | 240° |
| 2026-05-04 23:52 | 24.67219 | 46.45928 | 10734 ft | 359 kts | 240° |
| 2026-05-04 23:52 | 24.65878 | 46.43535 | 10865 ft | 375 kts | 240° |
| 2026-05-04 23:53 | 24.64488 | 46.41050 | 11112 ft | 386 kts | 240° |
| 2026-05-04 23:53 | 24.63076 | 46.38522 | 11572 ft | 389 kts | 241° |
| 2026-05-04 23:53 | 24.62023 | 46.35801 | 12112 ft | 388 kts | 259° |
| 2026-05-04 23:53 | 24.61898 | 46.32856 | 12668 ft | 388 kts | 277° |
| 2026-05-04 23:54 | 24.62505 | 46.30007 | 13182 ft | 391 kts | 290° |
| 2026-05-04 23:54 | 24.63808 | 46.27375 | 13646 ft | 396 kts | 304° |
| 2026-05-04 23:54 | 24.65488 | 46.24970 | 14114 ft | 398 kts | 307° |
| 2026-05-04 23:54 | 24.67220 | 46.22571 | 14504 ft | 402 kts | 307° |
| 2026-05-04 23:55 | 24.68841 | 46.20321 | 14851 ft | 406 kts | 307° |
| 2026-05-04 23:55 | 24.70585 | 46.17872 | 15243 ft | 409 kts | 306° |
| 2026-05-04 23:55 | 24.73965 | 46.13057 | 15959 ft | 416 kts | 306° |
| 2026-05-04 23:56 | 24.75735 | 46.10517 | 16356 ft | 419 kts | 306° |
| 2026-05-04 23:56 | 24.77510 | 46.07970 | 16775 ft | 421 kts | 306° |
| 2026-05-04 23:56 | 24.79273 | 46.05439 | 17139 ft | 424 kts | 306° |
| 2026-05-04 23:56 | 24.80944 | 46.03040 | 17456 ft | 427 kts | 306° |
| 2026-05-04 23:57 | 24.82006 | 46.01514 | 17662 ft | 429 kts | 306° |
| 2026-05-04 23:57 | 24.83320 | 45.99630 | 17922 ft | 431 kts | 306° |
| 2026-05-04 23:57 | 24.84799 | 45.97509 | 18207 ft | 433 kts | 306° |
| 2026-05-04 23:57 | 24.86371 | 45.95247 | 18461 ft | 436 kts | 306° |
| 2026-05-04 23:58 | 24.87994 | 45.92910 | 18733 ft | 437 kts | 305° |
| 2026-05-04 23:58 | 24.89690 | 45.90466 | 19032 ft | 439 kts | 305° |
| 2026-05-04 23:58 | 24.91517 | 45.87835 | 19354 ft | 440 kts | 305° |
| 2026-05-04 23:58 | 24.93348 | 45.85195 | 19696 ft | 441 kts | 305° |
| 2026-05-04 23:59 | 24.95215 | 45.82503 | 19985 ft | 443 kts | 305° |
| 2026-05-04 23:59 | 24.97092 | 45.79796 | 20282 ft | 445 kts | 305° |
| 2026-05-04 23:59 | 24.98960 | 45.77098 | 20566 ft | 447 kts | 304° |
| 2026-05-04 23:59 | 25.00773 | 45.74481 | 20836 ft | 449 kts | 304° |
| 2026-05-05 00:00 | 25.02608 | 45.71829 | 21105 ft | 451 kts | 304° |
| 2026-05-05 00:00 | 25.03226 | 45.70936 | 21197 ft | 451 kts | 304° |
| 2026-05-05 00:00 | 25.05906 | 45.66012 | 21587 ft | 448 kts | 283° |
| 2026-05-05 00:00 | 25.06511 | 45.62732 | 22148 ft | 440 kts | 278° |
| 2026-05-05 00:01 | 25.07048 | 45.59398 | 22363 ft | 444 kts | 278° |
| 2026-05-05 00:01 | 25.07593 | 45.56027 | 22487 ft | 449 kts | 278° |
| 2026-05-05 00:01 | 25.08150 | 45.52637 | 22698 ft | 451 kts | 278° |
| 2026-05-05 00:01 | 25.08715 | 45.49235 | 22982 ft | 451 kts | 278° |
| 2026-05-05 00:02 | 25.09289 | 45.45821 | 23244 ft | 452 kts | 278° |
| 2026-05-05 00:02 | 25.09864 | 45.42413 | 23466 ft | 454 kts | 278° |
| 2026-05-05 00:02 | 25.10444 | 45.38984 | 23654 ft | 456 kts | 278° |
| 2026-05-05 00:02 | 25.11027 | 45.35537 | 23860 ft | 456 kts | 278° |
| 2026-05-05 00:03 | 25.11600 | 45.32143 | 24074 ft | 456 kts | 278° |
| 2026-05-05 00:03 | 25.12179 | 45.28710 | 24273 ft | 457 kts | 278° |
| 2026-05-05 00:03 | 25.12759 | 45.25262 | 24493 ft | 456 kts | 278° |
| 2026-05-05 00:03 | 25.13337 | 45.21824 | 24726 ft | 456 kts | 277° |
| 2026-05-05 00:04 | 25.13915 | 45.18375 | 24889 ft | 457 kts | 277° |
| 2026-05-05 00:04 | 25.14492 | 45.14928 | 25018 ft | 459 kts | 277° |
| 2026-05-05 00:04 | 25.15070 | 45.11469 | 25251 ft | 457 kts | 277° |
| 2026-05-05 00:04 | 25.15645 | 45.08026 | 25518 ft | 456 kts | 277° |
| 2026-05-05 00:05 | 25.16211 | 45.04628 | 25718 ft | 456 kts | 277° |
| 2026-05-05 00:05 | 25.16784 | 45.01186 | 25920 ft | 456 kts | 277° |
| 2026-05-05 00:05 | 25.17354 | 44.97757 | 26174 ft | 455 kts | 277° |
| 2026-05-05 00:05 | 25.17923 | 44.94329 | 26434 ft | 453 kts | 277° |
| 2026-05-05 00:06 | 25.18490 | 44.90906 | 26723 ft | 451 kts | 277° |
| 2026-05-05 00:06 | 25.19052 | 44.87513 | 27033 ft | 449 kts | 277° |
| 2026-05-05 00:06 | 25.19610 | 44.84132 | 27332 ft | 447 kts | 277° |
| 2026-05-05 00:06 | 25.20166 | 44.80758 | 27612 ft | 446 kts | 277° |
| 2026-05-05 00:07 | 25.20721 | 44.77393 | 27911 ft | 445 kts | 277° |
| 2026-05-05 00:07 | 25.21273 | 44.74033 | 28215 ft | 443 kts | 277° |
| 2026-05-05 00:07 | 25.21814 | 44.70736 | 28521 ft | 442 kts | 277° |
| 2026-05-05 00:07 | 25.22359 | 44.67410 | 28824 ft | 440 kts | 277° |
| 2026-05-05 00:08 | 25.22904 | 44.64088 | 29186 ft | 438 kts | 277° |
| 2026-05-05 00:08 | 25.23442 | 44.60797 | 29594 ft | 434 kts | 276° |
| 2026-05-05 00:08 | 25.23975 | 44.57529 | 29973 ft | 432 kts | 276° |
| 2026-05-05 00:09 | 25.25043 | 44.50966 | 29972 ft | 434 kts | 276° |
| 2026-05-05 00:09 | 25.26202 | 44.44449 | 29983 ft | 431 kts | 278° |
| 2026-05-05 00:10 | 25.27446 | 44.38039 | 29987 ft | 429 kts | 278° |
| 2026-05-05 00:10 | 25.28691 | 44.31600 | 29977 ft | 428 kts | 278° |
| 2026-05-05 00:11 | 25.29915 | 44.25170 | 29977 ft | 427 kts | 278° |
| 2026-05-05 00:11 | 25.31127 | 44.18751 | 29984 ft | 427 kts | 278° |
| 2026-05-05 00:12 | 25.32330 | 44.12361 | 29976 ft | 427 kts | 278° |
| 2026-05-05 00:12 | 25.33536 | 44.05932 | 29971 ft | 427 kts | 278° |
| 2026-05-05 00:13 | 25.34742 | 43.99495 | 29986 ft | 428 kts | 277° |
| 2026-05-05 00:13 | 25.35944 | 43.93061 | 29970 ft | 428 kts | 277° |
| 2026-05-05 00:14 | 25.37144 | 43.86622 | 29967 ft | 427 kts | 277° |
| 2026-05-05 00:14 | 25.38332 | 43.80230 | 29971 ft | 427 kts | 277° |
| 2026-05-05 00:15 | 25.39523 | 43.73806 | 29960 ft | 427 kts | 277° |
| 2026-05-05 00:15 | 25.40712 | 43.67380 | 29962 ft | 426 kts | 277° |
| 2026-05-05 00:16 | 25.41896 | 43.60961 | 29971 ft | 426 kts | 277° |
| 2026-05-05 00:16 | 25.43068 | 43.54589 | 29956 ft | 425 kts | 277° |
| 2026-05-05 00:17 | 25.44244 | 43.48183 | 29955 ft | 425 kts | 277° |
| 2026-05-05 00:17 | 25.45418 | 43.41771 | 29959 ft | 424 kts | 277° |
| 2026-05-05 00:18 | 25.46584 | 43.35381 | 29962 ft | 424 kts | 277° |
| 2026-05-05 00:18 | 25.47751 | 43.28977 | 29957 ft | 424 kts | 277° |
| 2026-05-05 00:19 | 25.48903 | 43.22632 | 29967 ft | 424 kts | 277° |
| 2026-05-05 00:19 | 25.50062 | 43.16237 | 29943 ft | 424 kts | 277° |
| 2026-05-05 00:20 | 25.51216 | 43.09851 | 29952 ft | 423 kts | 277° |
| 2026-05-05 00:20 | 25.52367 | 43.03467 | 29930 ft | 423 kts | 277° |
| 2026-05-05 00:20 | 25.52942 | 43.00276 | 30043 ft | 420 kts | 277° |
| 2026-05-05 00:21 | 25.53511 | 42.97131 | 29990 ft | 414 kts | 277° |
| 2026-05-05 00:21 | 25.54629 | 42.90958 | 29970 ft | 412 kts | 277° |
| 2026-05-05 00:22 | 25.55753 | 42.84730 | 29965 ft | 412 kts | 277° |
| 2026-05-05 00:22 | 25.56874 | 42.78503 | 29964 ft | 413 kts | 277° |
| 2026-05-05 00:23 | 25.57994 | 42.72262 | 29961 ft | 413 kts | 277° |
| 2026-05-05 00:23 | 25.59106 | 42.66052 | 29962 ft | 414 kts | 277° |
| 2026-05-05 00:24 | 25.60224 | 42.59796 | 29968 ft | 414 kts | 277° |
| 2026-05-05 00:24 | 25.61340 | 42.53534 | 29961 ft | 414 kts | 277° |
| 2026-05-05 00:25 | 25.62265 | 42.48331 | 29966 ft | 414 kts | 277° |
| 2026-05-05 00:25 | 25.63375 | 42.42072 | 29958 ft | 413 kts | 277° |
| 2026-05-05 00:26 | 25.64659 | 42.34815 | 29954 ft | 413 kts | 277° |
| 2026-05-05 00:26 | 25.65575 | 42.29623 | 29960 ft | 413 kts | 277° |
| 2026-05-05 00:27 | 25.66820 | 42.23401 | 29959 ft | 415 kts | 281° |
| 2026-05-05 00:27 | 25.68490 | 42.17270 | 29970 ft | 416 kts | 282° |
| 2026-05-05 00:28 | 25.70435 | 42.10146 | 29962 ft | 415 kts | 282° |
| 2026-05-05 00:28 | 25.71824 | 42.05012 | 29959 ft | 415 kts | 281° |
| 2026-05-05 00:29 | 25.73462 | 41.98919 | 29965 ft | 414 kts | 281° |
| 2026-05-05 00:29 | 25.75101 | 41.92804 | 29975 ft | 414 kts | 281° |
| 2026-05-05 00:30 | 25.76740 | 41.86675 | 29968 ft | 414 kts | 281° |
| 2026-05-05 00:30 | 25.78372 | 41.80562 | 29967 ft | 414 kts | 281° |
| 2026-05-05 00:31 | 25.79995 | 41.74474 | 29985 ft | 414 kts | 281° |
| 2026-05-05 00:31 | 25.81624 | 41.68351 | 29974 ft | 414 kts | 281° |
| 2026-05-05 00:32 | 25.83252 | 41.62219 | 29969 ft | 414 kts | 281° |
| 2026-05-05 00:32 | 25.84876 | 41.56094 | 29994 ft | 414 kts | 281° |
| 2026-05-05 00:33 | 25.86489 | 41.49996 | 29980 ft | 415 kts | 281° |
| 2026-05-05 00:33 | 25.88113 | 41.43847 | 29979 ft | 415 kts | 281° |
| 2026-05-05 00:34 | 25.89735 | 41.37694 | 29982 ft | 415 kts | 281° |
| 2026-05-05 00:34 | 25.91353 | 41.31545 | 29996 ft | 415 kts | 281° |
| 2026-05-05 00:35 | 25.92972 | 41.25378 | 29987 ft | 416 kts | 281° |
| 2026-05-05 00:35 | 25.94577 | 41.19257 | 29982 ft | 415 kts | 281° |
| 2026-05-05 00:36 | 25.96188 | 41.13101 | 30011 ft | 415 kts | 281° |
| 2026-05-05 00:36 | 25.97794 | 41.06948 | 30003 ft | 415 kts | 281° |
| 2026-05-05 00:37 | 25.99399 | 41.00790 | 29997 ft | 415 kts | 281° |
| 2026-05-05 00:37 | 26.01001 | 40.94633 | 30003 ft | 414 kts | 281° |
| 2026-05-05 00:38 | 26.02586 | 40.88526 | 30012 ft | 414 kts | 281° |
| 2026-05-05 00:38 | 26.04180 | 40.82376 | 30004 ft | 414 kts | 281° |
| 2026-05-05 00:39 | 26.05769 | 40.76235 | 29999 ft | 413 kts | 281° |
| 2026-05-05 00:39 | 26.07353 | 40.70096 | 30006 ft | 412 kts | 281° |
| 2026-05-05 00:40 | 26.08919 | 40.64003 | 30003 ft | 412 kts | 281° |
| 2026-05-05 00:40 | 26.10490 | 40.57877 | 30001 ft | 412 kts | 280° |
| 2026-05-05 00:41 | 26.12058 | 40.51750 | 30004 ft | 412 kts | 281° |
| 2026-05-05 00:41 | 26.13623 | 40.45624 | 30001 ft | 412 kts | 281° |
| 2026-05-05 00:42 | 26.15191 | 40.39480 | 30007 ft | 414 kts | 281° |
| 2026-05-05 00:42 | 26.16753 | 40.33346 | 30008 ft | 415 kts | 281° |
| 2026-05-05 00:43 | 26.18328 | 40.27154 | 30013 ft | 416 kts | 281° |
| 2026-05-05 00:43 | 26.19903 | 40.20949 | 30010 ft | 418 kts | 280° |
| 2026-05-05 00:44 | 26.21485 | 40.14706 | 30023 ft | 419 kts | 280° |
| 2026-05-05 00:44 | 26.23067 | 40.08448 | 30022 ft | 421 kts | 280° |
| 2026-05-05 00:45 | 26.24654 | 40.02163 | 30021 ft | 422 kts | 280° |
| 2026-05-05 00:45 | 26.26231 | 39.95902 | 30018 ft | 423 kts | 280° |
| 2026-05-05 00:46 | 26.27816 | 39.89596 | 30018 ft | 423 kts | 280° |
| 2026-05-05 00:46 | 26.29396 | 39.83296 | 30014 ft | 422 kts | 280° |
| 2026-05-05 00:47 | 26.30973 | 39.76997 | 30026 ft | 421 kts | 280° |
| 2026-05-05 00:47 | 26.32532 | 39.70762 | 30006 ft | 420 kts | 279° |
| 2026-05-05 00:48 | 26.34093 | 39.64504 | 30004 ft | 418 kts | 279° |
| 2026-05-05 00:48 | 26.35642 | 39.58274 | 30007 ft | 417 kts | 279° |
| 2026-05-05 00:49 | 26.37186 | 39.52057 | 30009 ft | 415 kts | 279° |
| 2026-05-05 00:49 | 26.38724 | 39.45849 | 29998 ft | 414 kts | 279° |
| 2026-05-05 00:50 | 26.40244 | 39.39705 | 30005 ft | 413 kts | 279° |
| 2026-05-05 00:50 | 26.41768 | 39.33528 | 30015 ft | 413 kts | 279° |
| 2026-05-05 00:51 | 26.43290 | 39.27352 | 30000 ft | 412 kts | 279° |
| 2026-05-05 00:51 | 26.44880 | 39.21199 | 30003 ft | 413 kts | 281° |
| 2026-05-05 00:52 | 26.46528 | 39.15061 | 29980 ft | 413 kts | 281° |
| 2026-05-05 00:52 | 26.48159 | 39.08963 | 30005 ft | 413 kts | 281° |
| 2026-05-05 00:53 | 26.49789 | 39.02819 | 30009 ft | 413 kts | 281° |
| 2026-05-05 00:53 | 26.51415 | 38.96668 | 29995 ft | 413 kts | 281° |
| 2026-05-05 00:54 | 26.53034 | 38.90525 | 29994 ft | 413 kts | 281° |
| 2026-05-05 00:54 | 26.54643 | 38.84407 | 29996 ft | 413 kts | 281° |
| 2026-05-05 00:55 | 26.56257 | 38.78259 | 29995 ft | 413 kts | 281° |
| 2026-05-05 00:55 | 26.57871 | 38.72100 | 29989 ft | 413 kts | 281° |
| 2026-05-05 00:56 | 26.59481 | 38.65942 | 29996 ft | 413 kts | 281° |
| 2026-05-05 00:56 | 26.61092 | 38.59773 | 29987 ft | 414 kts | 281° |
| 2026-05-05 00:57 | 26.62691 | 38.53634 | 29983 ft | 414 kts | 281° |
| 2026-05-05 00:57 | 26.64299 | 38.47450 | 29987 ft | 415 kts | 280° |
| 2026-05-05 00:58 | 26.65904 | 38.41265 | 29984 ft | 415 kts | 280° |
| 2026-05-05 00:58 | 26.67511 | 38.35064 | 29983 ft | 415 kts | 280° |
| 2026-05-05 00:59 | 26.69101 | 38.28911 | 29978 ft | 415 kts | 280° |
| 2026-05-05 00:59 | 26.70701 | 38.22709 | 29977 ft | 415 kts | 280° |
| 2026-05-05 01:00 | 26.72297 | 38.16513 | 29991 ft | 415 kts | 280° |
| 2026-05-05 01:00 | 26.73892 | 38.10306 | 29995 ft | 415 kts | 280° |
| 2026-05-05 01:01 | 26.75485 | 38.04096 | 29996 ft | 416 kts | 280° |
| 2026-05-05 01:01 | 26.77076 | 37.97880 | 30000 ft | 416 kts | 280° |
| 2026-05-05 01:02 | 26.78655 | 37.91698 | 29983 ft | 415 kts | 280° |
| 2026-05-05 01:02 | 26.80238 | 37.85485 | 29996 ft | 416 kts | 280° |
| 2026-05-05 01:03 | 26.81821 | 37.79259 | 29991 ft | 416 kts | 280° |
| 2026-05-05 01:03 | 26.83404 | 37.73031 | 29991 ft | 416 kts | 280° |
| 2026-05-05 01:04 | 26.84980 | 37.66811 | 30017 ft | 415 kts | 281° |
| 2026-05-05 01:04 | 26.87331 | 37.57520 | 30013 ft | 415 kts | 281° |
| 2026-05-05 01:05 | 26.88902 | 37.51290 | 30015 ft | 416 kts | 281° |
| 2026-05-05 01:05 | 26.90472 | 37.45049 | 30010 ft | 417 kts | 281° |
| 2026-05-05 01:06 | 26.92044 | 37.38790 | 30012 ft | 418 kts | 281° |
| 2026-05-05 01:06 | 26.93608 | 37.32550 | 30006 ft | 419 kts | 281° |
| 2026-05-05 01:07 | 26.95179 | 37.26271 | 30005 ft | 419 kts | 281° |
| 2026-05-05 01:07 | 26.96747 | 37.19991 | 30010 ft | 419 kts | 281° |
| 2026-05-05 01:08 | 26.98314 | 37.13697 | 29991 ft | 419 kts | 281° |
| 2026-05-05 01:08 | 26.99868 | 37.07448 | 29999 ft | 419 kts | 281° |
| 2026-05-05 01:09 | 27.01431 | 37.01148 | 29977 ft | 419 kts | 281° |
| 2026-05-05 01:09 | 27.02991 | 36.94845 | 30001 ft | 420 kts | 281° |
| 2026-05-05 01:10 | 27.04556 | 36.88512 | 29978 ft | 421 kts | 281° |
| 2026-05-05 01:10 | 27.06122 | 36.82200 | 29959 ft | 420 kts | 281° |
| 2026-05-05 01:11 | 27.07675 | 36.75931 | 29964 ft | 420 kts | 282° |
| 2026-05-05 01:11 | 27.09231 | 36.69620 | 29965 ft | 420 kts | 281° |
| 2026-05-05 01:12 | 27.10755 | 36.63298 | 29948 ft | 421 kts | 281° |
| 2026-05-05 01:12 | 27.12301 | 36.56963 | 29947 ft | 421 kts | 281° |
| 2026-05-05 01:13 | 27.13850 | 36.50620 | 29940 ft | 421 kts | 281° |
| 2026-05-05 01:13 | 27.15388 | 36.44302 | 29943 ft | 422 kts | 281° |
| 2026-05-05 01:14 | 27.16932 | 36.37944 | 29940 ft | 422 kts | 281° |
| 2026-05-05 01:14 | 27.18476 | 36.31577 | 29935 ft | 422 kts | 281° |
| 2026-05-05 01:15 | 27.20016 | 36.25210 | 29937 ft | 422 kts | 281° |
| 2026-05-05 01:15 | 27.21551 | 36.18850 | 29925 ft | 422 kts | 281° |
| 2026-05-05 01:16 | 27.23072 | 36.12530 | 29935 ft | 421 kts | 281° |
| 2026-05-05 01:16 | 27.24601 | 36.06175 | 29931 ft | 421 kts | 281° |
| 2026-05-05 01:17 | 27.26122 | 35.99839 | 29930 ft | 420 kts | 281° |
| 2026-05-05 01:17 | 27.27418 | 35.94424 | 29924 ft | 420 kts | 281° |
| 2026-05-05 01:18 | 27.28931 | 35.88091 | 29925 ft | 420 kts | 281° |
| 2026-05-05 01:18 | 27.30423 | 35.81832 | 29930 ft | 419 kts | 281° |
| 2026-05-05 01:19 | 27.31930 | 35.75493 | 29923 ft | 420 kts | 281° |
| 2026-05-05 01:19 | 27.33427 | 35.69188 | 29927 ft | 419 kts | 281° |
| 2026-05-05 01:20 | 27.34810 | 35.63348 | 29928 ft | 419 kts | 281° |
| 2026-05-05 01:20 | 27.36013 | 35.58259 | 29924 ft | 418 kts | 281° |
| 2026-05-05 01:21 | 27.36997 | 35.54067 | 29927 ft | 417 kts | 280° |
| 2026-05-05 01:21 | 27.37802 | 35.50252 | 30031 ft | 410 kts | 274° |
| 2026-05-05 01:22 | 27.37877 | 35.49533 | 30110 ft | 407 kts | 269° |
| 2026-05-05 01:22 | 27.37745 | 35.47226 | 30016 ft | 406 kts | 266° |
| 2026-05-05 01:23 | 27.38185 | 35.41661 | 29946 ft | 417 kts | 288° |
| 2026-05-05 01:23 | 27.40653 | 35.35751 | 29922 ft | 420 kts | 289° |
| 2026-05-05 01:24 | 27.42663 | 35.29660 | 29932 ft | 417 kts | 283° |
| 2026-05-05 01:24 | 27.44202 | 35.23530 | 29955 ft | 417 kts | 281° |
| 2026-05-05 01:25 | 27.45650 | 35.17237 | 29932 ft | 418 kts | 281° |
| 2026-05-05 01:25 | 27.47108 | 35.10904 | 29942 ft | 418 kts | 281° |
| 2026-05-05 01:26 | 27.48576 | 35.04574 | 29939 ft | 418 kts | 281° |
| 2026-05-05 01:26 | 27.50050 | 34.98249 | 29959 ft | 418 kts | 282° |
| 2026-05-05 01:27 | 27.52600 | 34.92303 | 29950 ft | 427 kts | 297° |
| 2026-05-05 01:27 | 27.56489 | 34.87159 | 29960 ft | 436 kts | 309° |
| 2026-05-05 01:28 | 27.60943 | 34.82514 | 29950 ft | 436 kts | 310° |
| 2026-05-05 01:28 | 27.65359 | 34.77918 | 29949 ft | 434 kts | 310° |
| 2026-05-05 01:29 | 27.69759 | 34.73281 | 29960 ft | 432 kts | 310° |
| 2026-05-05 01:29 | 27.74139 | 34.68636 | 29954 ft | 431 kts | 310° |
| 2026-05-05 01:30 | 27.78500 | 34.64003 | 29967 ft | 430 kts | 309° |
| 2026-05-05 01:30 | 27.82852 | 34.59375 | 29962 ft | 429 kts | 309° |
| 2026-05-05 01:31 | 27.87178 | 34.54770 | 29963 ft | 427 kts | 309° |
| 2026-05-05 01:31 | 27.91499 | 34.50165 | 29972 ft | 426 kts | 309° |
| 2026-05-05 01:32 | 27.95774 | 34.45603 | 29968 ft | 425 kts | 309° |
| 2026-05-05 01:32 | 28.00056 | 34.40985 | 29968 ft | 423 kts | 307° |
| 2026-05-05 01:33 | 28.03814 | 34.35946 | 29973 ft | 418 kts | 302° |
| 2026-05-05 01:33 | 28.07459 | 34.30801 | 29968 ft | 419 kts | 302° |
| 2026-05-05 01:34 | 28.11094 | 34.25709 | 29980 ft | 420 kts | 303° |
| 2026-05-05 01:34 | 28.14786 | 34.20570 | 30031 ft | 420 kts | 302° |
| 2026-05-05 01:35 | 28.18484 | 34.15437 | 29993 ft | 419 kts | 302° |
| 2026-05-05 01:35 | 28.22165 | 34.10322 | 30011 ft | 417 kts | 302° |
| 2026-05-05 01:36 | 28.25804 | 34.05261 | 30006 ft | 416 kts | 302° |
| 2026-05-05 01:36 | 28.29453 | 34.00185 | 30000 ft | 414 kts | 302° |
| 2026-05-05 01:37 | 28.33079 | 33.95126 | 30037 ft | 413 kts | 302° |
| 2026-05-05 01:37 | 28.36695 | 33.90059 | 30040 ft | 413 kts | 302° |
| 2026-05-05 01:38 | 28.40330 | 33.84988 | 30019 ft | 414 kts | 302° |
| 2026-05-05 01:38 | 28.43932 | 33.79953 | 30019 ft | 413 kts | 302° |
| 2026-05-05 01:39 | 28.47543 | 33.74887 | 30014 ft | 411 kts | 302° |
| 2026-05-05 01:39 | 28.51136 | 33.69850 | 30008 ft | 410 kts | 302° |
| 2026-05-05 01:40 | 28.54722 | 33.64815 | 30050 ft | 410 kts | 301° |
| 2026-05-05 01:40 | 28.58304 | 33.59776 | 30014 ft | 410 kts | 301° |
| 2026-05-05 01:41 | 28.61868 | 33.54764 | 30052 ft | 410 kts | 301° |
| 2026-05-05 01:41 | 28.65457 | 33.49699 | 30038 ft | 412 kts | 301° |
| 2026-05-05 01:42 | 28.69057 | 33.44624 | 30038 ft | 413 kts | 301° |
| 2026-05-05 01:42 | 28.72668 | 33.39530 | 30060 ft | 413 kts | 301° |
| 2026-05-05 01:43 | 28.76255 | 33.34464 | 30058 ft | 413 kts | 301° |
| 2026-05-05 01:43 | 28.79855 | 33.29370 | 30047 ft | 413 kts | 301° |
| 2026-05-05 01:44 | 28.83451 | 33.24275 | 30045 ft | 413 kts | 301° |
| 2026-05-05 01:44 | 28.87029 | 33.19200 | 30057 ft | 412 kts | 301° |
| 2026-05-05 01:45 | 28.90618 | 33.14105 | 30079 ft | 412 kts | 301° |
| 2026-05-05 01:45 | 28.94175 | 33.09047 | 30068 ft | 411 kts | 301° |
| 2026-05-05 01:46 | 28.97588 | 33.04188 | 30059 ft | 410 kts | 301° |
| 2026-05-05 01:46 | 29.01144 | 32.99120 | 30064 ft | 409 kts | 301° |
| 2026-05-05 01:47 | 29.04693 | 32.94055 | 30073 ft | 408 kts | 301° |
| 2026-05-05 01:47 | 29.08234 | 32.88995 | 30070 ft | 408 kts | 301° |
| 2026-05-05 01:48 | 29.11584 | 32.84202 | 30083 ft | 408 kts | 301° |
| 2026-05-05 01:48 | 29.14759 | 32.79654 | 30072 ft | 407 kts | 301° |
| 2026-05-05 01:49 | 29.18266 | 32.74625 | 30074 ft | 407 kts | 301° |
| 2026-05-05 01:49 | 29.21783 | 32.69576 | 30076 ft | 406 kts | 301° |
| 2026-05-05 01:50 | 29.25300 | 32.64519 | 30077 ft | 406 kts | 301° |
| 2026-05-05 01:50 | 29.28828 | 32.59437 | 29334 ft | 413 kts | 301° |
| 2026-05-05 01:51 | 29.30596 | 32.56872 | 28515 ft | 409 kts | 301° |
| 2026-05-05 01:51 | 29.32326 | 32.54354 | 27659 ft | 408 kts | 301° |
| 2026-05-05 01:51 | 29.34084 | 32.51789 | 26732 ft | 410 kts | 302° |
| 2026-05-05 01:51 | 29.35838 | 32.49228 | 26041 ft | 406 kts | 302° |
| 2026-05-05 01:52 | 29.37574 | 32.46694 | 25353 ft | 403 kts | 302° |
| 2026-05-05 01:52 | 29.39297 | 32.44180 | 24684 ft | 399 kts | 303° |
| 2026-05-05 01:52 | 29.41000 | 32.41692 | 24020 ft | 397 kts | 303° |
| 2026-05-05 01:52 | 29.42702 | 32.39204 | 23307 ft | 395 kts | 303° |
| 2026-05-05 01:53 | 29.44386 | 32.36740 | 22594 ft | 391 kts | 303° |
| 2026-05-05 01:53 | 29.46053 | 32.34301 | 21938 ft | 387 kts | 303° |
| 2026-05-05 01:53 | 29.47702 | 32.31884 | 21276 ft | 383 kts | 303° |
| 2026-05-05 01:53 | 29.49336 | 32.29490 | 20636 ft | 380 kts | 303° |
| 2026-05-05 01:54 | 29.50936 | 32.27144 | 20007 ft | 376 kts | 303° |
| 2026-05-05 01:54 | 29.52542 | 32.24789 | 19382 ft | 373 kts | 303° |
| 2026-05-05 01:54 | 29.54131 | 32.22459 | 18726 ft | 369 kts | 303° |
| 2026-05-05 01:54 | 29.55695 | 32.20152 | 18086 ft | 366 kts | 303° |
| 2026-05-05 01:55 | 29.57256 | 32.17858 | 17409 ft | 363 kts | 304° |
| 2026-05-05 01:55 | 29.58807 | 32.15579 | 16762 ft | 360 kts | 304° |
| 2026-05-05 01:55 | 29.60338 | 32.13327 | 16134 ft | 357 kts | 304° |
| 2026-05-05 01:55 | 29.61859 | 32.11089 | 15522 ft | 354 kts | 304° |
| 2026-05-05 01:56 | 29.63367 | 32.08868 | 14934 ft | 351 kts | 304° |
| 2026-05-05 01:56 | 29.64845 | 32.06689 | 14346 ft | 349 kts | 304° |
| 2026-05-05 01:56 | 29.66353 | 32.04464 | 13695 ft | 347 kts | 305° |
| 2026-05-05 01:56 | 29.67811 | 32.02313 | 13053 ft | 345 kts | 305° |
| 2026-05-05 01:57 | 29.69283 | 32.00141 | 12435 ft | 342 kts | 305° |
| 2026-05-05 01:57 | 29.70740 | 31.97989 | 11853 ft | 340 kts | 305° |
| 2026-05-05 01:57 | 29.72184 | 31.95854 | 11289 ft | 337 kts | 305° |
| 2026-05-05 01:57 | 29.73592 | 31.93774 | 11172 ft | 322 kts | 305° |
| 2026-05-05 01:58 | 29.74949 | 31.91767 | 11026 ft | 314 kts | 305° |
| 2026-05-05 01:58 | 29.76271 | 31.89813 | 10885 ft | 306 kts | 305° |
| 2026-05-05 01:58 | 29.77554 | 31.87912 | 10746 ft | 300 kts | 304° |
| 2026-05-05 01:58 | 29.78619 | 31.85948 | 10621 ft | 287 kts | 293° |
| 2026-05-05 01:59 | 29.79345 | 31.83863 | 10518 ft | 276 kts | 290° |
| 2026-05-05 01:59 | 29.80027 | 31.81811 | 10292 ft | 275 kts | 290° |
| 2026-05-05 01:59 | 29.80736 | 31.79674 | 10096 ft | 302 kts | 290° |
| 2026-05-05 01:59 | 29.81519 | 31.77300 | 9900 ft | 323 kts | 290° |
| 2026-05-05 02:00 | 29.82295 | 31.74939 | 9946 ft | 306 kts | 290° |
| 2026-05-05 02:00 | 29.83026 | 31.72715 | 9943 ft | 289 kts | 290° |
| 2026-05-05 02:00 | 29.83720 | 31.70603 | 9892 ft | 275 kts | 290° |
| 2026-05-05 02:00 | 29.84388 | 31.68597 | 9788 ft | 260 kts | 290° |
| 2026-05-05 02:01 | 29.85016 | 31.66715 | 9625 ft | 244 kts | 290° |
| 2026-05-05 02:01 | 29.85619 | 31.64906 | 9179 ft | 241 kts | 290° |
| 2026-05-05 02:01 | 29.86219 | 31.63101 | 8639 ft | 242 kts | 290° |
| 2026-05-05 02:01 | 29.86812 | 31.61314 | 8144 ft | 242 kts | 290° |
| 2026-05-05 02:02 | 29.87421 | 31.59478 | 7365 ft | 253 kts | 291° |
| 2026-05-05 02:02 | 29.88043 | 31.57603 | 7133 ft | 241 kts | 291° |
| 2026-05-05 02:02 | 29.88633 | 31.55821 | 6899 ft | 232 kts | 291° |
| 2026-05-05 02:02 | 29.89199 | 31.54110 | 6639 ft | 227 kts | 291° |
| 2026-05-05 02:03 | 29.89761 | 31.52411 | 6400 ft | 226 kts | 291° |
| 2026-05-05 02:03 | 29.90316 | 31.50731 | 6161 ft | 222 kts | 291° |
| 2026-05-05 02:03 | 29.90859 | 31.49085 | 5892 ft | 216 kts | 292° |
| 2026-05-05 02:03 | 29.91394 | 31.47466 | 5628 ft | 217 kts | 292° |
| 2026-05-05 02:04 | 29.91934 | 31.45828 | 5321 ft | 219 kts | 292° |
| 2026-05-05 02:04 | 29.92468 | 31.44210 | 5063 ft | 213 kts | 293° |
| 2026-05-05 02:04 | 29.92986 | 31.42637 | 4854 ft | 205 kts | 293° |
| 2026-05-05 02:04 | 29.93469 | 31.41169 | 4753 ft | 193 kts | 293° |
| 2026-05-05 02:05 | 29.93930 | 31.39767 | 4675 ft | 180 kts | 293° |
| 2026-05-05 02:05 | 29.94366 | 31.38443 | 4617 ft | 177 kts | 294° |
| 2026-05-05 02:05 | 29.94808 | 31.37109 | 4551 ft | 184 kts | 293° |
| 2026-05-05 02:05 | 29.95275 | 31.35692 | 4475 ft | 189 kts | 294° |
| 2026-05-05 02:06 | 29.95743 | 31.34272 | 4369 ft | 190 kts | 293° |
| 2026-05-05 02:06 | 29.96215 | 31.32831 | 4175 ft | 193 kts | 293° |
| 2026-05-05 02:06 | 29.96691 | 31.31383 | 3958 ft | 194 kts | 293° |
| 2026-05-05 02:06 | 29.97178 | 31.29939 | 3751 ft | 192 kts | 297° |
| 2026-05-05 02:07 | 29.98064 | 31.28884 | 3507 ft | 183 kts | 340° |
| 2026-05-05 02:07 | 29.99236 | 31.29002 | 3483 ft | 172 kts | 27° |
| 2026-05-05 02:07 | 30.00226 | 31.29769 | 3276 ft | 174 kts | 32° |
| 2026-05-05 02:07 | 30.01145 | 31.30646 | 3064 ft | 170 kts | 38° |
| 2026-05-05 02:08 | 30.01979 | 31.31579 | 2821 ft | 162 kts | 42° |
| 2026-05-05 02:08 | 30.02714 | 31.32512 | 2636 ft | 156 kts | 44° |
| 2026-05-05 02:08 | 30.03414 | 31.33440 | 2416 ft | 150 kts | 45° |
| 2026-05-05 02:08 | 30.04048 | 31.34290 | 2212 ft | 140 kts | 44° |
| 2026-05-05 02:09 | 30.04664 | 31.35115 | 2084 ft | 137 kts | 44° |
| 2026-05-05 02:09 | 30.05287 | 31.35949 | 1869 ft | 136 kts | 44° |
| 2026-05-05 02:09 | 30.05905 | 31.36777 | 1677 ft | 136 kts | 45° |
| 2026-05-05 02:09 | 30.06523 | 31.37606 | 1478 ft | 137 kts | 45° |
| 2026-05-05 02:10 | 30.07147 | 31.38444 | 1310 ft | 137 kts | 46° |
| 2026-05-05 02:10 | 30.07769 | 31.39281 | 1139 ft | 140 kts | 46° |
| 2026-05-05 02:10 | 30.08411 | 31.40132 | 921 ft | 140 kts | 47° |
| 2026-05-05 02:10 | 30.09035 | 31.40979 | 742 ft | 140 kts | 46° |
| 2026-05-05 02:11 | 30.09460 | 31.41553 | 630 ft | 140 kts | 47° |
| 2026-05-05 02:11 | 30.10090 | 31.42405 | 476 ft | 136 kts | 47° |
| 2026-05-05 02:11 | 30.10545 | 31.43017 | 459 ft | 114 kts | 45° |
| 2026-05-05 02:11 | 30.10912 | 31.43500 | 463 ft | 74 kts | 48° |
| 2026-05-05 02:12 | 30.11174 | 31.43849 | 462 ft | 53 kts | 49° |
| 2026-05-05 02:12 | 30.11571 | 31.44377 | 465 ft | 42 kts | 48° |
| 2026-05-05 02:12 | 30.11732 | 31.44596 | 465 ft | 39 kts | 48° |
| 2026-05-05 02:13 | 30.11889 | 31.44796 | 464 ft | 23 kts | 34° |
| 2026-05-05 02:13 | 30.11994 | 31.44767 | 454 ft | 9 kts | 320° |